Kesley, Iowa
Current Conditions -  °F | °C
As of 12:15 PM on Thursday 27 Nov 2014 (Local Time) from KIFA Reporting Station
Clear Clear  
Wind Chill: -10°   Ceiling: Unl
Heat Index:   Visibility: 7mi
Dew Point: -2°   Wind: 12mph
Humidity: 72%   Direction: 270°W
Pressure: 30.5"   Gusts: NA
Location:  42.66°N, 92.91°W
Report Text: KIFA 271815Z AUTO 27010KT 7SM CLR M15/M19 A3050 RMK AO2 T11481188
Loading
Personal Weather Stations






























Interactive Weather Map New forecast layout! Learn more

10-Day Weather Forecast

Advertisements
Track Severe Weather on mobile